Weather at Tiree Airport

Public forecast

Using degrees Celsius for public forecast. Weather courtesy of forecast.io.

Current aviation weather report (METAR) for Tiree Airport

Report is more than 6 hours old.

2024/05/19 13:50 (retrieved 10 hours ago)

EGPU 191350Z 34006KT 9999 BKN011 13/09 Q1019

Closest aviation forecast (TAF) to Tiree Airport

Closest forecast is Glasgow International Airport, 89.7 nm (166.1 km) ESE.

2024/05/19 18:00 (retrieved 6 hours ago)

TAF EGPF 191656Z 1918/2018 07007KT 9999 FEW035 PROB40 TEMPO 2000/2007 8000 BKN010